createdAt,value
2024-02-18T00:00:20.321Z,960.9
2024-02-18T00:01:22.937Z,960.8
2024-02-18T00:02:25.041Z,960.8
2024-02-18T00:03:27.286Z,960.9
2024-02-18T00:04:29.826Z,960.9
2024-02-18T00:05:32.064Z,960.9
2024-02-18T00:06:34.198Z,960.9
2024-02-18T00:07:36.483Z,960.9
2024-02-18T00:08:38.412Z,960.9
2024-02-18T00:09:40.469Z,960.9
2024-02-18T00:10:42.301Z,960.9
2024-02-18T00:11:44.043Z,960.9
2024-02-18T00:12:46.042Z,960.8
2024-02-18T00:13:48.201Z,960.8
2024-02-18T00:14:50.100Z,960.8
2024-02-18T00:15:52.293Z,960.8
2024-02-18T00:16:54.092Z,960.8
2024-02-18T00:17:56.115Z,960.8
2024-02-18T00:18:58.442Z,960.8
2024-02-18T00:20:01.079Z,960.9
2024-02-18T00:21:03.215Z,960.8
2024-02-18T00:22:05.409Z,960.9
2024-02-18T00:23:07.518Z,960.8
2024-02-18T00:24:09.267Z,960.8
2024-02-18T00:25:11.464Z,960.8
2024-02-18T00:26:13.641Z,960.9
2024-02-18T00:27:15.447Z,960.8
2024-02-18T00:28:17.209Z,960.8
2024-02-18T00:29:18.901Z,960.8
2024-02-18T00:30:20.767Z,960.8
2024-02-18T00:31:22.683Z,960.8
2024-02-18T00:32:24.521Z,960.8
2024-02-18T00:33:26.729Z,960.8
2024-02-18T00:34:29.641Z,960.8
2024-02-18T00:35:32.102Z,960.8
2024-02-18T00:36:34.132Z,960.8
2024-02-18T00:37:36.334Z,960.8
2024-02-18T00:38:38.278Z,960.8
2024-02-18T00:39:40.067Z,960.8
2024-02-18T00:40:41.947Z,960.8
2024-02-18T00:41:43.732Z,960.7
2024-02-18T00:42:45.701Z,960.8
2024-02-18T00:43:47.618Z,960.8
2024-02-18T00:44:49.475Z,960.8
2024-02-18T00:45:51.599Z,960.8
2024-02-18T00:47:06.576Z,960.8
2024-02-18T00:48:09.214Z,960.8
2024-02-18T00:49:11.868Z,960.8
2024-02-18T00:50:14.283Z,960.8
2024-02-18T00:51:16.053Z,960.8
2024-02-18T00:52:17.827Z,960.8
2024-02-18T00:53:19.652Z,960.8
2024-02-18T00:54:21.694Z,960.8
2024-02-18T00:55:23.684Z,960.8
2024-02-18T00:56:25.503Z,960.8
2024-02-18T00:57:27.508Z,960.8
2024-02-18T00:58:29.317Z,960.8
2024-02-18T00:59:31.090Z,960.7
2024-02-18T01:00:33.501Z,960.7
2024-02-18T01:01:36.164Z,960.8
2024-02-18T01:02:38.313Z,960.8
2024-02-18T01:03:40.352Z,960.8
2024-02-18T01:04:42.477Z,960.8
2024-02-18T01:05:44.559Z,960.8
2024-02-18T01:06:46.817Z,960.7
2024-02-18T01:07:48.774Z,960.8
2024-02-18T01:08:50.802Z,960.8
2024-02-18T01:09:53.165Z,960.8
2024-02-18T01:10:55.373Z,960.8
2024-02-18T01:11:57.352Z,960.7
2024-02-18T01:12:59.478Z,960.7
2024-02-18T01:14:01.377Z,960.7
2024-02-18T01:15:03.186Z,960.7
2024-02-18T01:16:05.261Z,960.7
2024-02-18T01:17:07.381Z,960.7
2024-02-18T01:18:09.456Z,960.7
2024-02-18T01:19:12.799Z,960.7
2024-02-18T01:20:14.994Z,960.7
2024-02-18T01:21:16.771Z,960.7
2024-02-18T01:22:18.541Z,960.7
2024-02-18T01:23:20.348Z,960.7
2024-02-18T01:24:22.457Z,960.7
2024-02-18T01:25:24.398Z,960.7
2024-02-18T01:26:26.112Z,960.7
2024-02-18T01:27:28.015Z,960.7
2024-02-18T01:28:29.947Z,960.7
2024-02-18T01:29:31.683Z,960.7
2024-02-18T01:30:33.681Z,960.7
2024-02-18T01:31:35.625Z,960.7
2024-02-18T01:32:37.533Z,960.7
2024-02-18T01:33:39.654Z,960.7
2024-02-18T01:34:41.657Z,960.6
2024-02-18T01:35:43.608Z,960.6
2024-02-18T01:36:45.485Z,960.6
2024-02-18T01:37:47.278Z,960.7
2024-02-18T01:38:49.095Z,960.6
2024-02-18T01:39:51.185Z,960.6
2024-02-18T01:40:53.077Z,960.6
2024-02-18T01:41:54.857Z,960.6
2024-02-18T01:42:57.019Z,960.6
2024-02-18T01:43:58.923Z,960.6
2024-02-18T01:45:00.786Z,960.6
2024-02-18T01:46:02.935Z,960.6
2024-02-18T01:47:05.057Z,960.6
2024-02-18T01:48:07.432Z,960.7
2024-02-18T01:49:10.394Z,960.6
2024-02-18T01:50:13.734Z,960.7
2024-02-18T01:51:15.939Z,960.7
2024-02-18T01:52:17.702Z,960.7
2024-02-18T01:53:19.473Z,960.7
2024-02-18T01:54:21.575Z,960.7
2024-02-18T01:55:23.560Z,960.7
2024-02-18T01:56:25.387Z,960.6
2024-02-18T01:57:27.162Z,960.7
2024-02-18T01:58:28.911Z,960.7
2024-02-18T01:59:30.662Z,960.7
2024-02-18T02:00:32.893Z,960.7
2024-02-18T02:01:35.412Z,960.8
2024-02-18T02:02:37.708Z,960.7
2024-02-18T02:03:39.936Z,960.8
2024-02-18T02:04:42.545Z,960.8
2024-02-18T02:05:45.034Z,960.8
2024-02-18T02:06:47.201Z,960.7
2024-02-18T02:07:49.150Z,960.7
2024-02-18T02:08:51.223Z,960.7
2024-02-18T02:09:53.407Z,960.8
2024-02-18T02:10:55.471Z,960.8
2024-02-18T02:11:57.501Z,960.8
2024-02-18T02:12:59.677Z,960.8
2024-02-18T02:14:01.480Z,960.7
2024-02-18T02:15:03.245Z,960.8
2024-02-18T02:16:05.467Z,960.8
2024-02-18T02:17:07.592Z,960.7
2024-02-18T02:18:09.832Z,960.8
2024-02-18T02:19:12.366Z,960.8
2024-02-18T02:20:14.650Z,960.8
2024-02-18T02:21:16.731Z,960.8
2024-02-18T02:22:18.497Z,960.8
2024-02-18T02:23:20.283Z,960.9
2024-02-18T02:24:22.383Z,960.9
2024-02-18T02:25:24.424Z,960.9
2024-02-18T02:26:26.352Z,960.9
2024-02-18T02:27:28.196Z,960.9
2024-02-18T02:28:30.052Z,960.9
2024-02-18T02:29:31.801Z,960.9
2024-02-18T02:30:33.711Z,960.9
2024-02-18T02:31:35.697Z,960.9
2024-02-18T02:32:37.965Z,961
2024-02-18T02:33:40.217Z,960.9
2024-02-18T02:34:42.273Z,961
2024-02-18T02:35:44.315Z,961
2024-02-18T02:36:46.176Z,961
2024-02-18T02:37:48.066Z,960.9
2024-02-18T02:38:50.055Z,961
2024-02-18T02:39:52.477Z,961
2024-02-18T02:40:54.430Z,961
2024-02-18T02:41:56.208Z,961
2024-02-18T02:42:58.180Z,961
2024-02-18T02:44:00.104Z,960.9
2024-02-18T02:45:01.884Z,960.9
2024-02-18T02:46:04.065Z,961
2024-02-18T02:47:05.994Z,961
2024-02-18T02:48:08.222Z,961
2024-02-18T02:49:10.819Z,961
2024-02-18T02:50:13.001Z,961
2024-02-18T02:51:14.749Z,961
2024-02-18T02:52:16.473Z,961
2024-02-18T02:53:18.527Z,961
2024-02-18T02:54:20.713Z,961
2024-02-18T02:55:22.677Z,961
2024-02-18T02:56:24.484Z,961.1
2024-02-18T02:57:26.575Z,961
2024-02-18T02:58:28.399Z,961
2024-02-18T02:59:30.235Z,961
2024-02-18T03:00:32.306Z,961.1
2024-02-18T03:01:35.032Z,961
2024-02-18T03:02:37.164Z,961
2024-02-18T03:03:39.297Z,961
2024-02-18T03:04:41.802Z,961
2024-02-18T03:05:44.017Z,961
2024-02-18T03:06:46.177Z,961
2024-02-18T03:07:48.114Z,961
2024-02-18T03:08:49.875Z,961
2024-02-18T03:09:51.943Z,961.1
2024-02-18T03:10:54.005Z,961
2024-02-18T03:11:56.179Z,961
2024-02-18T03:12:58.415Z,961
2024-02-18T03:14:00.351Z,961
2024-02-18T03:15:02.192Z,961
2024-02-18T03:16:04.193Z,961.1
2024-02-18T03:17:06.261Z,961.1
2024-02-18T03:18:08.274Z,961
2024-02-18T03:19:10.667Z,961
2024-02-18T03:20:12.939Z,961
2024-02-18T03:21:15.418Z,961
2024-02-18T03:22:17.196Z,961
2024-02-18T03:23:18.962Z,961
2024-02-18T03:24:21.121Z,961
2024-02-18T03:25:23.172Z,961.1
2024-02-18T03:26:24.947Z,961
2024-02-18T03:27:27.100Z,961
2024-02-18T03:28:29.226Z,961
2024-02-18T03:29:31.037Z,961.1
2024-02-18T03:30:32.984Z,961
2024-02-18T03:31:34.860Z,961.1
2024-02-18T03:32:37.356Z,961.1
2024-02-18T03:33:39.655Z,961.2
2024-02-18T03:34:42.032Z,961.1
2024-02-18T03:35:44.207Z,961.2
2024-02-18T03:36:46.189Z,961.2
2024-02-18T03:37:48.148Z,961.2
2024-02-18T03:38:50.213Z,961.2
2024-02-18T03:39:52.356Z,961.3
2024-02-18T03:40:54.185Z,961.3
2024-02-18T03:41:55.951Z,961.3
2024-02-18T03:42:58.111Z,961.3
2024-02-18T03:44:00.120Z,961.3
2024-02-18T03:45:01.973Z,961.3
2024-02-18T03:46:04.367Z,961.3
2024-02-18T03:47:06.355Z,961.3
2024-02-18T03:48:08.634Z,961.3
2024-02-18T03:49:10.945Z,961.3
2024-02-18T03:50:13.109Z,961.3
2024-02-18T03:51:15.084Z,961.3
2024-02-18T03:52:16.811Z,961.3
2024-02-18T03:53:18.560Z,961.3
2024-02-18T03:54:20.839Z,961.3
2024-02-18T03:55:22.846Z,961.3
2024-02-18T03:56:24.576Z,961.2
2024-02-18T03:57:26.446Z,961.2
2024-02-18T03:58:28.868Z,961.2
2024-02-18T03:59:30.985Z,961.2
2024-02-18T04:00:33.415Z,961.2
2024-02-18T04:01:36.050Z,961.2
2024-02-18T04:02:38.332Z,961.2
2024-02-18T04:03:40.499Z,961.2
2024-02-18T04:04:42.926Z,961.2
2024-02-18T04:05:45.880Z,961.2
2024-02-18T04:06:47.873Z,961.2
2024-02-18T04:07:49.681Z,961.3
2024-02-18T04:08:51.652Z,961.3
2024-02-18T04:09:53.893Z,961.3
2024-02-18T04:10:55.901Z,961.3
2024-02-18T04:11:57.933Z,961.3
2024-02-18T04:13:00.472Z,961.3
2024-02-18T04:14:02.459Z,961.3
2024-02-18T04:15:04.478Z,961.3
2024-02-18T04:16:06.608Z,961.3
2024-02-18T04:17:08.799Z,961.3
2024-02-18T04:18:11.136Z,961.3
2024-02-18T04:19:13.654Z,961.3
2024-02-18T04:20:15.885Z,961.3
2024-02-18T04:21:17.948Z,961.3
2024-02-18T04:22:19.746Z,961.4
2024-02-18T04:23:21.508Z,961.3
2024-02-18T04:24:23.520Z,961.3
2024-02-18T04:25:25.375Z,961.4
2024-02-18T04:26:27.173Z,961.3
2024-02-18T04:27:29.123Z,961.3
2024-02-18T04:28:31.075Z,961.3
2024-02-18T04:29:33.122Z,961.3
2024-02-18T04:30:35.424Z,961.3
2024-02-18T04:31:37.287Z,961.3
2024-02-18T04:32:39.321Z,961.2
2024-02-18T04:33:41.985Z,961.2
2024-02-18T04:34:44.688Z,961.2
2024-02-18T04:35:46.828Z,961.2
2024-02-18T04:36:49.193Z,961.2
2024-02-18T04:37:51.230Z,961.2
2024-02-18T04:38:53.040Z,961.2
2024-02-18T04:39:55.073Z,961.2
2024-02-18T04:40:57.013Z,961.2
2024-02-18T04:41:58.795Z,961.2
2024-02-18T04:43:00.919Z,961.2
2024-02-18T04:44:03.158Z,961.1
2024-02-18T04:45:04.950Z,961.2
2024-02-18T04:46:07.164Z,961.2
2024-02-18T04:47:09.023Z,961.2
2024-02-18T04:48:11.320Z,961.1
2024-02-18T04:49:13.843Z,961.1
2024-02-18T04:50:15.841Z,961.1
2024-02-18T04:51:17.708Z,961.2
2024-02-18T04:52:19.533Z,961.2
2024-02-18T04:53:21.403Z,961.2
2024-02-18T04:54:23.467Z,961.2
2024-02-18T04:55:25.298Z,961.2
2024-02-18T04:56:27.105Z,961.2
2024-02-18T04:57:28.999Z,961.2
2024-02-18T04:58:30.977Z,961.2
2024-02-18T04:59:32.767Z,961.2
2024-02-18T05:00:34.782Z,961.2
2024-02-18T05:01:37.474Z,961.3
2024-02-18T05:02:39.699Z,961.2
2024-02-18T05:03:41.666Z,961.2
2024-02-18T05:04:43.609Z,961.3
2024-02-18T05:05:45.799Z,961.2
2024-02-18T05:06:47.723Z,961.2
2024-02-18T05:07:49.807Z,961.3
2024-02-18T05:08:51.813Z,961.3
2024-02-18T05:09:53.808Z,961.3
2024-02-18T05:10:55.941Z,961.3
2024-02-18T05:11:57.849Z,961.3
2024-02-18T05:12:59.886Z,961.3
2024-02-18T05:14:02.097Z,961.3
2024-02-18T05:15:03.915Z,961.3
2024-02-18T05:16:06.271Z,961.3
2024-02-18T05:17:08.097Z,961.3
2024-02-18T05:18:10.610Z,961.3
2024-02-18T05:19:13.409Z,961.4
2024-02-18T05:20:15.703Z,961.4
2024-02-18T05:21:17.489Z,961.4
2024-02-18T05:22:19.363Z,961.5
2024-02-18T05:23:21.124Z,961.5
2024-02-18T05:24:22.987Z,961.4
2024-02-18T05:25:24.814Z,961.5
2024-02-18T05:26:26.593Z,961.5
2024-02-18T05:27:28.526Z,961.5
2024-02-18T05:28:30.345Z,961.5
2024-02-18T05:29:32.134Z,961.5
2024-02-18T05:30:34.158Z,961.5
2024-02-18T05:31:36.122Z,961.5
2024-02-18T05:32:38.629Z,961.5
2024-02-18T05:33:41.400Z,961.5
2024-02-18T05:34:44.527Z,961.5
2024-02-18T05:35:47.147Z,961.6
2024-02-18T05:36:49.393Z,961.5
2024-02-18T05:37:51.262Z,961.6
2024-02-18T05:38:53.046Z,961.6
2024-02-18T05:39:55.130Z,961.6
2024-02-18T05:40:57.031Z,961.6
2024-02-18T05:41:58.868Z,961.6
2024-02-18T05:43:00.903Z,961.6
2024-02-18T05:44:03.035Z,961.6
2024-02-18T05:45:05.150Z,961.6
2024-02-18T05:46:07.033Z,961.6
2024-02-18T05:47:09.100Z,961.6
2024-02-18T05:48:11.662Z,961.6
2024-02-18T05:49:14.382Z,961.6
2024-02-18T05:50:16.785Z,961.6
2024-02-18T05:51:18.495Z,961.6
2024-02-18T05:52:20.256Z,961.6
2024-02-18T05:53:22.042Z,961.6
2024-02-18T05:54:24.119Z,961.6
2024-02-18T05:55:25.915Z,961.6
2024-02-18T05:56:27.675Z,961.7
2024-02-18T05:57:29.754Z,961.7
2024-02-18T05:58:32.011Z,961.7
2024-02-18T05:59:34.257Z,961.7
2024-02-18T06:00:36.559Z,961.7
2024-02-18T06:01:39.119Z,961.8
2024-02-18T06:02:41.465Z,961.8
2024-02-18T06:03:43.825Z,961.8
2024-02-18T06:04:45.930Z,961.8
2024-02-18T06:05:48.049Z,961.8
2024-02-18T06:06:50.569Z,961.8
2024-02-18T06:07:52.877Z,961.8
2024-02-18T06:08:54.833Z,961.8
2024-02-18T06:09:57.071Z,961.8
2024-02-18T06:10:59.717Z,961.8
2024-02-18T06:12:02.366Z,961.8
2024-02-18T06:13:04.499Z,961.9
2024-02-18T06:14:06.690Z,961.9
2024-02-18T06:15:08.471Z,961.9
2024-02-18T06:16:10.622Z,962
2024-02-18T06:17:12.655Z,961.9
2024-02-18T06:18:15.107Z,962
2024-02-18T06:19:18.862Z,962
2024-02-18T06:20:20.908Z,962
2024-02-18T06:21:23.509Z,962.1
2024-02-18T06:22:25.515Z,962
2024-02-18T06:23:27.274Z,962
2024-02-18T06:24:30.581Z,962
2024-02-18T06:25:32.555Z,962
2024-02-18T06:26:34.372Z,962
2024-02-18T06:27:36.240Z,962
2024-02-18T06:28:38.126Z,962
2024-02-18T06:29:40.058Z,962
2024-02-18T06:30:42.206Z,962
2024-02-18T06:31:44.222Z,962
2024-02-18T06:32:46.059Z,962.1
2024-02-18T06:33:49.012Z,962
2024-02-18T06:34:51.987Z,962
2024-02-18T06:35:54.423Z,962.1
2024-02-18T06:36:56.440Z,962.1
2024-02-18T06:37:58.364Z,962.1
2024-02-18T06:39:00.136Z,962.1
2024-02-18T06:40:02.439Z,962.1
2024-02-18T06:41:04.503Z,962.1
2024-02-18T06:42:06.306Z,962.2
2024-02-18T06:43:08.833Z,962.1
2024-02-18T06:44:10.894Z,962.2
2024-02-18T06:45:12.681Z,962.1
2024-02-18T06:46:14.994Z,962.1
2024-02-18T06:47:16.994Z,962.1
2024-02-18T06:48:19.510Z,962.1
2024-02-18T06:49:22.078Z,962.1
2024-02-18T06:50:24.393Z,962.1
2024-02-18T06:51:26.822Z,962.1
2024-02-18T06:52:29.022Z,962.2
2024-02-18T06:53:30.840Z,962.2
2024-02-18T06:54:32.897Z,962.2
2024-02-18T06:55:34.785Z,962.2
2024-02-18T06:56:36.616Z,962.2
2024-02-18T06:57:39.004Z,962.2
2024-02-18T06:58:40.866Z,962.2
2024-02-18T06:59:42.679Z,962.1
2024-02-18T07:00:45.051Z,962.1
2024-02-18T07:01:47.428Z,962.1
2024-02-18T07:02:49.438Z,962.1
2024-02-18T07:03:51.360Z,962.1
2024-02-18T07:04:53.837Z,962.2
2024-02-18T07:05:56.025Z,962.1
2024-02-18T07:06:58.296Z,962.1
2024-02-18T07:08:00.188Z,962.1
2024-02-18T07:09:05.206Z,962.1
2024-02-18T07:10:08.228Z,962.1
2024-02-18T07:11:10.720Z,962.1
2024-02-18T07:12:12.677Z,962.2
2024-02-18T07:13:14.739Z,962.2
2024-02-18T07:14:16.620Z,962.1
2024-02-18T07:15:18.405Z,962.1
2024-02-18T07:16:20.220Z,962.2
2024-02-18T07:17:22.054Z,962.2
2024-02-18T07:18:24.734Z,962.2
2024-02-18T07:19:27.556Z,962.2
2024-02-18T07:20:29.813Z,962.2
2024-02-18T07:21:32.071Z,962.2
2024-02-18T07:22:34.306Z,962.2
2024-02-18T07:23:36.059Z,962.2
2024-02-18T07:24:37.886Z,962.2
2024-02-18T07:25:39.751Z,962.2
2024-02-18T07:26:41.569Z,962.2
2024-02-18T07:27:43.376Z,962.2
2024-02-18T07:28:45.179Z,962.1
2024-02-18T07:29:47.029Z,962.2
2024-02-18T07:30:48.856Z,962.2
2024-02-18T07:31:50.948Z,962.1
2024-02-18T07:32:53.241Z,962.1
2024-02-18T07:33:56.009Z,962.2
2024-02-18T07:34:58.785Z,962.2
2024-02-18T07:36:00.988Z,962.2
2024-02-18T07:37:03.151Z,962.2
2024-02-18T07:38:05.439Z,962.3
2024-02-18T07:39:07.291Z,962.2
2024-02-18T07:40:09.433Z,962.2
2024-02-18T07:41:11.511Z,962.3
2024-02-18T07:42:13.373Z,962.3
2024-02-18T07:43:15.366Z,962.3
2024-02-18T07:44:17.225Z,962.2
2024-02-18T07:45:18.990Z,962.2
2024-02-18T07:46:21.014Z,962.2
2024-02-18T07:47:23.449Z,962.2
2024-02-18T07:48:26.130Z,962.3
2024-02-18T07:49:28.999Z,962.2
2024-02-18T07:50:31.123Z,962.2
2024-02-18T07:51:33.408Z,962.2
2024-02-18T07:52:35.194Z,962.2
2024-02-18T07:53:36.964Z,962.2
2024-02-18T07:54:39.035Z,962.2
2024-02-18T07:55:40.844Z,962.2
2024-02-18T07:56:42.608Z,962.2
2024-02-18T07:57:44.610Z,962.2
2024-02-18T07:58:46.509Z,962.1
2024-02-18T07:59:48.279Z,962.1
2024-02-18T08:00:50.470Z,962.1
2024-02-18T08:01:52.972Z,962.1
2024-02-18T08:02:55.075Z,962.1
2024-02-18T08:03:57.262Z,962.1
2024-02-18T08:04:59.826Z,962.1
2024-02-18T08:06:02.500Z,962
2024-02-18T08:07:04.710Z,962.1
2024-02-18T08:08:06.861Z,962.1
2024-02-18T08:09:10.102Z,962.1
2024-02-18T08:10:12.261Z,962.1
2024-02-18T08:11:14.290Z,962.1
2024-02-18T08:12:16.306Z,962.1
2024-02-18T08:13:18.478Z,962.1
2024-02-18T08:14:20.410Z,962.2
2024-02-18T08:15:22.232Z,962.1
2024-02-18T08:16:24.080Z,962.1
2024-02-18T08:17:26.021Z,962.1
2024-02-18T08:18:28.584Z,962.1
2024-02-18T08:19:31.062Z,962.1
2024-02-18T08:20:33.130Z,962.1
2024-02-18T08:21:35.019Z,962.1
2024-02-18T08:22:37.427Z,962.2
2024-02-18T08:23:39.440Z,962.1
2024-02-18T08:24:41.704Z,962.1
2024-02-18T08:25:43.546Z,962.1
2024-02-18T08:26:45.318Z,962.1
2024-02-18T08:27:47.492Z,962.1
2024-02-18T08:28:49.425Z,962.2
2024-02-18T08:29:51.213Z,962.2
2024-02-18T08:30:53.106Z,962.2
2024-02-18T08:31:54.946Z,962.2
2024-02-18T08:32:56.914Z,962.1
2024-02-18T08:33:59.421Z,962.2
2024-02-18T08:35:02.361Z,962.1
2024-02-18T08:36:04.465Z,962.2
2024-02-18T08:37:06.569Z,962.1
2024-02-18T08:38:08.824Z,962.2
2024-02-18T08:39:10.771Z,962.2
2024-02-18T08:40:12.965Z,962.2
2024-02-18T08:41:14.969Z,962.2
2024-02-18T08:42:16.732Z,962.2
2024-02-18T08:43:18.609Z,962.2
2024-02-18T08:44:20.643Z,962.2
2024-02-18T08:45:22.466Z,962.2
2024-02-18T08:46:24.248Z,962.2
2024-02-18T08:47:26.411Z,962.2
2024-02-18T08:48:28.803Z,962.2
2024-02-18T08:49:31.319Z,962.2
2024-02-18T08:50:33.335Z,962.2
2024-02-18T08:51:35.345Z,962.3
2024-02-18T08:52:37.284Z,962.3
2024-02-18T08:53:39.449Z,962.2
2024-02-18T08:54:41.611Z,962.2
2024-02-18T08:55:43.832Z,962.2
2024-02-18T08:56:45.617Z,962.2
2024-02-18T08:57:47.558Z,962.2
2024-02-18T08:58:49.493Z,962.2
2024-02-18T08:59:51.262Z,962.2
2024-02-18T09:00:53.315Z,962.3
2024-02-18T09:01:55.697Z,962.3
2024-02-18T09:02:57.711Z,962.2
2024-02-18T09:03:59.793Z,962.3
2024-02-18T09:05:02.839Z,962.3
2024-02-18T09:06:05.136Z,962.3
2024-02-18T09:07:07.051Z,962.3
2024-02-18T09:08:08.953Z,962.3
2024-02-18T09:09:10.997Z,962.3
2024-02-18T09:10:13.296Z,962.3
2024-02-18T09:11:15.838Z,962.3
2024-02-18T09:12:17.898Z,962.3
2024-02-18T09:13:19.711Z,962.4
2024-02-18T09:14:21.499Z,962.4
2024-02-18T09:15:23.379Z,962.3
2024-02-18T09:16:25.414Z,962.4
2024-02-18T09:17:27.330Z,962.3
2024-02-18T09:18:30.418Z,962.4
2024-02-18T09:19:33.028Z,962.3
2024-02-18T09:20:35.239Z,962.3
2024-02-18T09:21:37.117Z,962.3
2024-02-18T09:22:39.125Z,962.3
2024-02-18T09:23:40.950Z,962.3
2024-02-18T09:24:43.176Z,962.3
2024-02-18T09:25:45.252Z,962.3
2024-02-18T09:26:47.044Z,962.3
2024-02-18T09:27:49.163Z,962.4
2024-02-18T09:28:51.307Z,962.4
2024-02-18T09:29:53.254Z,962.4
2024-02-18T09:30:55.370Z,962.3
2024-02-18T09:31:57.629Z,962.4
2024-02-18T09:32:59.459Z,962.4
2024-02-18T09:34:02.107Z,962.4
2024-02-18T09:35:05.313Z,962.4
2024-02-18T09:36:07.575Z,962.4
2024-02-18T09:37:09.775Z,962.4
2024-02-18T09:38:12.069Z,962.4
2024-02-18T09:39:13.907Z,962.4
2024-02-18T09:40:16.365Z,962.4
2024-02-18T09:41:18.485Z,962.4
2024-02-18T09:42:20.415Z,962.4
2024-02-18T09:43:22.164Z,962.4
2024-02-18T09:44:24.018Z,962.4
2024-02-18T09:45:26.206Z,962.4
2024-02-18T09:46:35.056Z,962.4
2024-02-18T09:47:37.651Z,962.3
2024-02-18T09:48:40.223Z,962.3
2024-02-18T09:49:42.964Z,962.3
2024-02-18T09:50:44.949Z,962.3
2024-02-18T09:51:47.017Z,962.3
2024-02-18T09:52:48.905Z,962.3
2024-02-18T09:53:50.719Z,962.3
2024-02-18T09:54:52.788Z,962.2
2024-02-18T09:55:55.116Z,962.3
2024-02-18T09:56:56.953Z,962.3
2024-02-18T09:57:59.069Z,962.2
2024-02-18T09:59:01.029Z,962.2
2024-02-18T10:00:02.840Z,962.2
2024-02-18T10:01:05.054Z,962.2
2024-02-18T10:02:07.362Z,962.2
2024-02-18T10:03:09.312Z,962.2
2024-02-18T10:04:11.441Z,962.2
2024-02-18T10:05:13.926Z,962.2
2024-02-18T10:06:16.216Z,962.1
2024-02-18T10:07:18.351Z,962.1
2024-02-18T10:08:20.201Z,962.1
2024-02-18T10:09:22.143Z,962.1
2024-02-18T10:10:23.921Z,962.1
2024-02-18T10:11:26.208Z,962.1
2024-02-18T10:12:28.282Z,962.1
2024-02-18T10:13:30.089Z,962
2024-02-18T10:14:31.886Z,962
2024-02-18T10:15:34.150Z,962
2024-02-18T10:16:36.172Z,962
2024-02-18T10:17:38.037Z,961.9
2024-02-18T10:18:40.480Z,962
2024-02-18T10:19:43.019Z,961.9
2024-02-18T10:20:45.076Z,961.9
2024-02-18T10:21:47.104Z,962
2024-02-18T10:22:48.896Z,962
2024-02-18T10:23:50.799Z,961.9
2024-02-18T10:24:52.843Z,961.9
2024-02-18T10:25:54.755Z,962
2024-02-18T10:26:56.788Z,961.9
2024-02-18T10:27:59.321Z,961.8
2024-02-18T10:29:01.524Z,961.9
2024-02-18T10:30:03.337Z,961.9
2024-02-18T10:31:05.726Z,961.9
2024-02-18T10:32:07.799Z,961.8
2024-02-18T10:33:09.724Z,961.8
2024-02-18T10:34:12.559Z,961.7
2024-02-18T10:35:15.410Z,961.7
2024-02-18T10:36:18.465Z,961.8
2024-02-18T10:37:20.937Z,961.7
2024-02-18T10:38:22.907Z,961.7
2024-02-18T10:39:25.023Z,961.6
2024-02-18T10:40:26.822Z,961.7
2024-02-18T10:41:28.882Z,961.6
2024-02-18T10:42:31.308Z,961.6
2024-02-18T10:43:33.272Z,961.6
2024-02-18T10:44:35.237Z,961.6
2024-02-18T10:45:37.149Z,961.6
2024-02-18T10:46:38.917Z,961.6
2024-02-18T10:47:40.873Z,961.6
2024-02-18T10:48:43.021Z,961.6
2024-02-18T10:49:45.717Z,961.5
2024-02-18T10:50:48.411Z,961.6
2024-02-18T10:51:50.906Z,961.6
2024-02-18T10:52:52.759Z,961.6
2024-02-18T10:53:54.515Z,961.5
2024-02-18T10:54:56.437Z,961.6
2024-02-18T10:56:00.922Z,961.5
2024-02-18T10:57:02.704Z,961.5
2024-02-18T10:58:04.869Z,961.5
2024-02-18T10:59:06.906Z,961.5
2024-02-18T11:00:08.758Z,961.5
2024-02-18T11:01:11.101Z,961.5
2024-02-18T11:02:13.225Z,961.5
2024-02-18T11:03:15.085Z,961.5
2024-02-18T11:04:17.270Z,961.5
2024-02-18T11:05:19.575Z,961.5
2024-02-18T11:06:22.055Z,961.5
2024-02-18T11:07:25.038Z,961.5
2024-02-18T11:08:27.079Z,961.5
2024-02-18T11:09:28.956Z,961.5
2024-02-18T11:10:30.881Z,961.5
2024-02-18T11:11:32.806Z,961.5
2024-02-18T11:12:35.055Z,961.5
2024-02-18T11:13:37.133Z,961.5
2024-02-18T11:14:39.008Z,961.5
2024-02-18T11:15:41.262Z,961.5
2024-02-18T11:16:43.207Z,961.5
2024-02-18T11:17:45.142Z,961.5
2024-02-18T11:18:47.435Z,961.4
2024-02-18T11:19:50.051Z,961.4
2024-02-18T11:20:52.366Z,961.4
2024-02-18T11:21:54.404Z,961.4
2024-02-18T11:22:56.381Z,961.4
2024-02-18T11:23:58.229Z,961.4
2024-02-18T11:25:00.250Z,961.4
2024-02-18T11:26:02.239Z,961.3
2024-02-18T11:27:04.092Z,961.3
2024-02-18T11:28:06.315Z,961.4
2024-02-18T11:29:08.547Z,961.4
2024-02-18T11:30:10.449Z,961.3
2024-02-18T11:31:12.860Z,961.3
2024-02-18T11:32:14.776Z,961.3
2024-02-18T11:33:16.945Z,961.3
2024-02-18T11:34:19.378Z,961.3
2024-02-18T11:35:21.742Z,961.3
2024-02-18T11:36:23.827Z,961.3
2024-02-18T11:37:25.580Z,961.3
2024-02-18T11:38:27.393Z,961.3
2024-02-18T11:39:29.323Z,961.3
2024-02-18T11:40:31.318Z,961.3
2024-02-18T11:41:33.114Z,961.3
2024-02-18T11:42:35.277Z,961.3
2024-02-18T11:43:37.119Z,961.3
2024-02-18T11:44:39.274Z,961.3
2024-02-18T11:45:41.372Z,961.3
2024-02-18T11:46:43.469Z,961.3
2024-02-18T11:47:45.456Z,961.3
2024-02-18T11:48:47.986Z,961.3
2024-02-18T11:49:50.769Z,961.3
2024-02-18T11:50:52.899Z,961.3
2024-02-18T11:51:55.195Z,961.3
2024-02-18T11:52:57.160Z,961.3
2024-02-18T11:53:58.891Z,961.3
2024-02-18T11:55:00.942Z,961.2
2024-02-18T11:56:02.900Z,961.2
2024-02-18T11:57:04.859Z,961.2
2024-02-18T11:58:07.412Z,961.2
2024-02-18T11:59:09.578Z,961.2
2024-02-18T12:00:12.046Z,961.2
2024-02-18T12:01:14.287Z,961.2
2024-02-18T12:02:16.517Z,961.2
2024-02-18T12:03:18.282Z,961.2
2024-02-18T12:04:20.405Z,961.2
2024-02-18T12:05:23.203Z,961.2
2024-02-18T12:06:26.309Z,961.2
2024-02-18T12:07:29.542Z,961.2
2024-02-18T12:08:31.708Z,961.2
2024-02-18T12:09:33.594Z,961.2
2024-02-18T12:10:40.077Z,961.2
2024-02-18T12:11:42.057Z,961.1
2024-02-18T12:12:43.891Z,961.1
2024-02-18T12:13:45.895Z,961.1
2024-02-18T12:14:47.667Z,961.2
2024-02-18T12:15:49.865Z,961.1
2024-02-18T12:16:51.889Z,961.1
2024-02-18T12:17:55.436Z,961.1
2024-02-18T12:18:58.591Z,961.1
2024-02-18T12:20:01.270Z,961.1
2024-02-18T12:21:03.633Z,961.1
2024-02-18T12:22:05.656Z,961.1
2024-02-18T12:23:07.670Z,961.1
2024-02-18T12:24:09.392Z,961.1
2024-02-18T12:25:11.538Z,961.1
2024-02-18T12:26:13.473Z,961
2024-02-18T12:27:15.251Z,961.1
2024-02-18T12:28:17.488Z,961.1
2024-02-18T12:29:19.506Z,961
2024-02-18T12:30:21.273Z,961
2024-02-18T12:31:23.235Z,961
2024-02-18T12:32:25.215Z,961
2024-02-18T12:33:27.695Z,961
2024-02-18T12:34:30.316Z,961
2024-02-18T12:35:32.341Z,961
2024-02-18T12:36:34.326Z,961
2024-02-18T12:37:37.533Z,961
2024-02-18T12:38:41.985Z,961
2024-02-18T12:39:43.847Z,961
2024-02-18T12:40:45.776Z,960.9
2024-02-18T12:41:47.621Z,961
2024-02-18T12:44:11.771Z,961
2024-02-18T12:46:41.427Z,960.9
2024-02-18T12:47:44.336Z,961
2024-02-18T12:48:47.367Z,961
2024-02-18T12:49:49.923Z,961
2024-02-18T12:50:52.347Z,961
2024-02-18T12:51:54.503Z,961
2024-02-18T12:52:56.403Z,961
2024-02-18T12:53:58.221Z,961
2024-02-18T12:55:00.248Z,961
2024-02-18T12:56:02.446Z,961
2024-02-18T12:57:04.293Z,960.9
2024-02-18T12:58:07.055Z,960.9
2024-02-18T12:59:09.571Z,960.9
2024-02-18T13:00:11.399Z,961
2024-02-18T13:01:13.858Z,960.9
2024-02-18T13:02:16.075Z,960.9
2024-02-18T13:03:18.206Z,960.9
2024-02-18T13:04:20.316Z,960.9
2024-02-18T13:05:22.456Z,960.9
2024-02-18T13:06:24.865Z,960.9
2024-02-18T13:07:26.850Z,960.9
2024-02-18T13:08:28.659Z,960.9
2024-02-18T13:09:30.695Z,960.9
2024-02-18T13:10:32.692Z,960.9
2024-02-18T13:11:34.516Z,960.9
2024-02-18T13:12:36.497Z,960.9
2024-02-18T13:13:38.572Z,960.9
2024-02-18T13:14:40.357Z,960.9
2024-02-18T13:15:42.210Z,960.9
2024-02-18T13:16:44.099Z,960.9
2024-02-18T13:17:46.188Z,960.9
2024-02-18T13:18:48.375Z,960.9
2024-02-18T13:19:50.809Z,960.9
2024-02-18T13:20:52.800Z,960.9
2024-02-18T13:21:54.917Z,960.9
2024-02-18T13:22:59.447Z,960.9
2024-02-18T13:24:04.218Z,960.9
2024-02-18T13:25:06.180Z,960.9
2024-02-18T13:26:08.011Z,960.9
2024-02-18T13:27:10.275Z,960.9
2024-02-18T13:28:12.679Z,960.9
2024-02-18T13:29:14.913Z,961